Time;durP1;ratioP1;P1;durP2;ratioP2;P2;SDS_P1;SDS_P2;PMS_P1;PMS_P2;Temp;Humidity;BMP_temperature;BMP_pressure;BME280_temperature;BME280_humidity;BME280_pressure;Samples;Min_cycle;Max_cycle;Signal;HPM_P1;HPM_P2
2021/12/23 00:01:57;;;;;;;9.20;4.70;;;;;;;-4.20;58.51;101688.23;117400;1183;21854;-53
2021/12/23 00:04:26;;;;;;;11.00;6.10;;;;;;;-4.23;58.51;101693.18;117396;1185;21850;-56
2021/12/23 00:06:55;;;;;;;12.10;6.10;;;;;;;-4.26;58.44;101693.27;117384;1186;23583;-52
2021/12/23 00:09:50;;;;;;;11.60;5.60;;;;;;;-4.31;58.30;101693.80;117314;1186;23434;-55
2021/12/23 00:12:11;;;;;;;12.60;6.10;;;;;;;-4.35;58.51;101697.77;117316;1183;21864;-57
2021/12/23 00:14:39;;;;;;;12.10;5.50;;;;;;;-4.38;58.43;101699.17;117269;1186;21878;-54
2021/12/23 00:23:21;;;;;;;13.40;6.10;;;;;;;-4.44;58.45;101701.30;117329;1183;21871;-53
2021/12/23 00:25:33;;;;;;;8.30;4.90;;;;;;;-4.42;58.45;101705.38;117354;1185;21855;-54
2021/12/23 00:28:02;;;;;;;10.10;5.30;;;;;;;-4.43;58.44;101703.77;117311;1186;22984;-53
2021/12/23 00:30:30;;;;;;;13.00;5.90;;;;;;;-4.47;58.50;101704.89;117376;1185;22941;-56
2021/12/23 00:32:59;;;;;;;10.60;5.60;;;;;;;-4.49;58.30;101702.16;117454;1185;21849;-56
2021/12/23 00:35:27;;;;;;;11.30;5.10;;;;;;;-4.53;58.39;101699.83;117381;1185;23580;-53
2021/12/23 00:38:01;;;;;;;10.50;6.60;;;;;;;-4.57;58.31;101699.86;117414;1186;21857;-58
2021/12/23 00:40:31;;;;;;;10.90;5.60;;;;;;;-4.62;58.31;101700.02;117328;1184;23029;-54
2021/12/23 00:43:00;;;;;;;13.60;6.60;;;;;;;-4.66;58.36;101699.10;117365;1182;21860;-53
2021/12/23 00:45:28;;;;;;;11.90;6.50;;;;;;;-4.67;58.39;101701.04;117360;1186;21866;-52
2021/12/23 00:47:57;;;;;;;13.50;6.00;;;;;;;-4.69;58.40;101702.84;117381;1186;21901;-55
2021/12/23 00:50:26;;;;;;;18.00;7.10;;;;;;;-4.72;58.41;101705.88;117334;1185;21847;-57
2021/12/23 00:52:57;;;;;;;22.30;8.70;;;;;;;-4.76;58.34;101702.30;117351;1182;21860;-58
2021/12/23 00:55:25;;;;;;;36.30;14.20;;;;;;;-4.82;58.30;101699.84;117334;1183;22950;-57
2021/12/23 00:57:54;;;;;;;38.40;14.70;;;;;;;-4.89;58.44;101696.30;117325;1189;21848;-56
2021/12/23 01:00:22;;;;;;;27.60;12.10;;;;;;;-4.97;58.25;101692.11;117364;1182;23436;-51
2021/12/23 01:02:51;;;;;;;55.20;18.30;;;;;;;-5.06;58.24;101691.81;117395;1185;23437;-56
2021/12/23 01:05:20;;;;;;;71.30;21.10;;;;;;;-5.13;58.20;101691.27;117276;1186;22644;-56
2021/12/23 01:07:49;;;;;;;70.10;23.40;;;;;;;-5.21;58.35;101691.74;117381;1182;21865;-57
2021/12/23 01:10:17;;;;;;;28.00;11.40;;;;;;;-5.27;58.22;101688.60;117403;1185;21857;-52
2021/12/23 01:12:49;;;;;;;25.00;10.50;;;;;;;-5.31;58.28;101694.81;117387;1183;21857;-51
2021/12/23 01:17:56;;;;;;;14.20;7.60;;;;;;;-5.44;58.20;101693.35;117309;1186;21858;-52
2021/12/23 01:20:29;;;;;;;13.60;6.10;;;;;;;-5.51;58.02;101692.33;117377;1183;22775;-57
2021/12/23 01:23:00;;;;;;;12.00;5.80;;;;;;;-5.57;58.09;101693.92;117343;1185;22928;-57
2021/12/23 01:25:28;;;;;;;10.80;5.20;;;;;;;-5.61;58.16;101696.20;117377;1183;21857;-57
2021/12/23 01:27:57;;;;;;;12.30;6.20;;;;;;;-5.61;58.13;101700.63;117373;1185;21970;-52
2021/12/23 01:30:26;;;;;;;11.80;5.80;;;;;;;-5.62;57.97;101699.05;117345;1183;21856;-52
2021/12/23 01:32:57;;;;;;;10.10;5.10;;;;;;;-5.66;57.90;101703.52;117269;1186;23550;-52
2021/12/23 01:35:26;;;;;;;12.70;5.00;;;;;;;-5.71;58.16;101706.79;117427;1185;21842;-51
2021/12/23 01:37:54;;;;;;;8.90;4.80;;;;;;;-5.75;58.20;101702.67;117349;1185;21877;-56
2021/12/23 01:40:26;;;;;;;10.30;4.90;;;;;;;-5.79;58.06;101707.02;117346;1183;21841;-56
2021/12/23 01:42:54;;;;;;;8.30;4.00;;;;;;;-5.86;57.94;101701.02;117400;1185;21857;-52
2021/12/23 01:45:27;;;;;;;11.00;5.40;;;;;;;-5.91;58.12;101699.31;117356;1185;21886;-56
2021/12/23 01:47:57;;;;;;;10.20;5.10;;;;;;;-5.93;58.08;101696.40;117328;1185;23563;-52
2021/12/23 01:50:27;;;;;;;9.70;4.60;;;;;;;-5.93;58.14;101695.86;117329;1182;21864;-57
2021/12/23 01:52:58;;;;;;;9.70;4.90;;;;;;;-5.95;58.22;101700.16;117350;1185;21831;-57
2021/12/23 01:55:27;;;;;;;10.10;5.30;;;;;;;-5.98;58.03;101702.73;117386;1183;21847;-52
2021/12/23 01:57:56;;;;;;;11.70;5.80;;;;;;;-6.01;58.09;101705.09;117316;1182;22687;-58
2021/12/23 02:00:27;;;;;;;11.50;5.80;;;;;;;-6.04;58.18;101706.16;117264;1182;21908;-52
2021/12/23 02:02:57;;;;;;;11.30;5.40;;;;;;;-6.07;58.24;101706.83;117369;1183;23459;-52
2021/12/23 02:05:25;;;;;;;11.70;5.70;;;;;;;-6.10;58.09;101709.49;117376;1186;21867;-57
2021/12/23 02:07:53;;;;;;;9.30;5.40;;;;;;;-6.15;58.26;101708.29;117274;1185;23541;-56
2021/12/23 02:10:22;;;;;;;11.30;5.20;;;;;;;-6.21;58.16;101708.89;117420;1185;21858;-57
2021/12/23 02:12:51;;;;;;;10.50;5.10;;;;;;;-6.26;58.03;101707.09;117354;1185;21974;-56
2021/12/23 02:15:39;;;;;;;8.90;4.50;;;;;;;-6.29;58.22;101709.45;117194;1186;23690;-52
2021/12/23 02:18:08;;;;;;;9.60;5.10;;;;;;;-6.30;58.10;101707.52;117369;1186;21848;-52
2021/12/23 02:20:36;;;;;;;9.50;4.60;;;;;;;-6.31;58.13;101709.66;117397;1183;23445;-57
2021/12/23 02:23:06;;;;;;;12.20;5.20;;;;;;;-6.33;58.28;101712.58;117382;1183;21861;-53
2021/12/23 02:25:34;;;;;;;9.40;4.20;;;;;;;-6.32;58.05;101716.38;117274;1185;22930;-52
2021/12/23 02:28:08;;;;;;;9.00;4.30;;;;;;;-6.33;58.22;101717.13;117340;1182;21849;-57
2021/12/23 02:30:38;;;;;;;7.50;4.80;;;;;;;-6.34;58.24;101721.02;117339;1183;22004;-57
2021/12/23 02:33:07;;;;;;;9.00;4.20;;;;;;;-6.36;58.12;101722.88;117365;1186;21859;-58
2021/12/23 02:35:35;;;;;;;8.40;4.00;;;;;;;-6.41;58.01;101728.65;117322;1182;21858;-58
2021/12/23 02:38:04;;;;;;;13.60;5.10;;;;;;;-6.46;58.20;101723.30;117349;1185;21875;-57
2021/12/23 02:40:37;;;;;;;9.10;4.90;;;;;;;-6.49;58.08;101719.17;117372;1185;21859;-56
2021/12/23 02:43:11;;;;;;;10.10;5.10;;;;;;;-6.50;58.18;101723.17;117256;1185;21857;-53
2021/12/23 02:45:40;;;;;;;11.60;5.00;;;;;;;-6.54;58.09;101721.36;117297;1185;22908;-57
2021/12/23 02:48:22;;;;;;;16.00;5.50;;;;;;;-6.60;58.21;101721.43;117445;1186;22897;-52
2021/12/23 02:50:52;;;;;;;10.30;5.00;;;;;;;-6.66;58.14;101721.65;117415;1182;21926;-58
2021/12/23 02:53:21;;;;;;;10.40;4.80;;;;;;;-6.70;58.11;101721.82;117419;1181;22985;-57
2021/12/23 02:55:49;;;;;;;10.70;4.70;;;;;;;-6.75;57.98;101727.94;117271;1186;21857;-57
2021/12/23 02:58:17;;;;;;;10.00;5.00;;;;;;;-6.79;57.96;101724.20;117437;1182;23445;-53
2021/12/23 03:00:48;;;;;;;12.40;5.40;;;;;;;-6.83;57.83;101728.13;117389;1183;23459;-52
2021/12/23 03:03:18;;;;;;;11.80;4.90;;;;;;;-6.85;57.89;101728.17;117200;1183;21895;-57
2021/12/23 03:05:50;;;;;;;8.80;4.40;;;;;;;-6.88;57.99;101731.16;117356;1185;21854;-52
2021/12/23 03:08:28;;;;;;;10.10;4.60;;;;;;;-6.90;57.96;101731.30;117395;1182;21857;-53
2021/12/23 03:10:56;;;;;;;9.20;4.60;;;;;;;-6.95;57.86;101737.56;117357;1185;21854;-52
2021/12/23 03:13:25;;;;;;;10.20;5.40;;;;;;;-7.01;57.98;101736.76;117361;1183;21886;-58
2021/12/23 03:16:00;;;;;;;9.90;4.30;;;;;;;-7.08;57.84;101737.48;117362;1176;21895;-52
2021/12/23 03:18:29;;;;;;;9.20;5.00;;;;;;;-7.13;57.82;101738.02;117419;1182;24136;-58
2021/12/23 03:20:58;;;;;;;9.50;4.80;;;;;;;-7.20;57.80;101734.89;117475;1182;21873;-52
2021/12/23 03:23:26;;;;;;;10.50;4.30;;;;;;;-7.25;57.88;101735.49;117418;1185;23641;-52
2021/12/23 03:25:55;;;;;;;9.10;4.00;;;;;;;-7.30;57.78;101733.79;117395;1186;23107;-52
2021/12/23 03:28:25;;;;;;;11.60;5.90;;;;;;;-7.34;57.77;101732.80;117411;1182;21955;-52
2021/12/23 03:30:53;;;;;;;8.50;3.90;;;;;;;-7.35;57.97;101732.02;117418;1183;21854;-57
2021/12/23 03:33:22;;;;;;;10.10;4.30;;;;;;;-7.36;57.98;101733.27;117389;1182;21857;-52
2021/12/23 03:35:50;;;;;;;9.20;4.70;;;;;;;-7.36;57.95;101733.13;117403;1183;22621;-56
2021/12/23 03:38:19;;;;;;;9.30;4.30;;;;;;;-7.37;57.98;101733.18;117461;1186;22880;-57
2021/12/23 03:40:48;;;;;;;8.60;4.50;;;;;;;-7.38;57.95;101736.20;117400;1183;23528;-52
2021/12/23 03:43:17;;;;;;;8.20;4.10;;;;;;;-7.36;58.02;101737.52;117431;1183;21858;-52
2021/12/23 03:45:46;;;;;;;8.40;4.60;;;;;;;-7.35;58.00;101738.29;117338;1186;24270;-53
2021/12/23 03:48:18;;;;;;;10.40;4.30;;;;;;;-7.36;57.98;101739.98;117308;1183;21860;-51
2021/12/23 03:50:47;;;;;;;9.60;4.30;;;;;;;-7.36;57.89;101741.64;117371;1185;22646;-57
2021/12/23 03:53:16;;;;;;;10.30;4.40;;;;;;;-7.37;57.88;101741.41;117390;1185;23701;-52
2021/12/23 03:55:45;;;;;;;10.30;5.00;;;;;;;-7.36;57.97;101742.48;117351;1181;22902;-52
2021/12/23 03:58:13;;;;;;;10.20;4.90;;;;;;;-7.41;57.96;101740.91;117385;1185;21879;-54
2021/12/23 04:00:43;;;;;;;;;;;;;;;-7.45;57.87;101743.29;117397;1185;22645;-52
2021/12/23 04:03:11;;;;;;;11.40;3.90;;;;;;;-7.42;57.66;101737.87;117421;1188;24165;-57
2021/12/23 04:05:40;;;;;;;10.10;4.40;;;;;;;-7.42;57.81;101739.30;117350;1183;23480;-52
2021/12/23 04:08:08;;;;;;;11.60;5.20;;;;;;;-7.46;57.78;101742.02;117334;1186;21855;-58
2021/12/23 04:10:37;;;;;;;8.30;4.60;;;;;;;-7.51;57.95;101738.55;117344;1183;21856;-53
2021/12/23 04:13:05;;;;;;;9.50;5.10;;;;;;;-7.52;58.00;101741.02;117169;1186;23537;-52
2021/12/23 04:15:34;;;;;;;11.10;5.20;;;;;;;-7.53;57.87;101749.27;117342;1182;21857;-53
2021/12/23 04:18:03;;;;;;;8.70;4.30;;;;;;;-7.56;57.86;101749.70;117381;1185;21868;-58
2021/12/23 04:20:35;;;;;;;13.10;5.20;;;;;;;-7.59;57.96;101750.34;117350;1186;21963;-52
2021/12/23 04:23:04;;;;;;;8.90;4.80;;;;;;;-7.58;57.96;101748.85;117370;1183;23432;-52
2021/12/23 04:25:32;;;;;;;11.40;4.70;;;;;;;-7.58;58.01;101750.36;117357;1182;21859;-52
2021/12/23 04:28:04;;;;;;;13.60;5.40;;;;;;;-7.58;58.00;101749.52;117407;1182;22846;-52
2021/12/23 04:30:33;;;;;;;9.80;5.20;;;;;;;-7.58;57.90;101755.16;117437;1182;23462;-52
2021/12/23 04:33:02;;;;;;;12.70;5.90;;;;;;;-7.60;58.05;101753.45;117358;1183;21947;-52
2021/12/23 04:35:32;;;;;;;8.40;4.00;;;;;;;-7.63;57.97;101759.44;117241;1186;22454;-58
2021/12/23 04:38:00;;;;;;;11.70;5.50;;;;;;;-7.62;57.80;101760.63;117354;1183;22630;-52
2021/12/23 04:40:30;;;;;;;14.10;5.70;;;;;;;-7.63;57.93;101760.27;117349;1183;22624;-58
2021/12/23 04:42:59;;;;;;;11.90;5.60;;;;;;;-7.61;58.00;101762.95;117353;1186;22058;-57
2021/12/23 04:45:27;;;;;;;11.40;5.70;;;;;;;-7.59;58.05;101760.91;117344;1183;23563;-58
2021/12/23 04:47:56;;;;;;;12.70;6.20;;;;;;;-7.57;58.04;101756.32;117330;1183;21871;-58
2021/12/23 04:50:25;;;;;;;9.80;4.50;;;;;;;-7.49;58.25;101762.25;117405;1182;21868;-57
2021/12/23 04:52:53;;;;;;;10.80;5.60;;;;;;;-7.42;58.14;101762.98;117343;1186;22322;-58
2021/12/23 04:55:22;;;;;;;12.40;5.70;;;;;;;-7.37;58.09;101765.13;117430;1183;22953;-57
2021/12/23 04:57:50;;;;;;;9.20;4.90;;;;;;;-7.37;58.06;101766.31;117355;1182;24170;-53
2021/12/23 05:00:20;;;;;;;9.50;4.90;;;;;;;-7.37;58.11;101765.77;117376;1186;21864;-52
2021/12/23 05:02:48;;;;;;;12.30;5.90;;;;;;;-7.40;58.05;101769.12;117328;1186;22854;-57
2021/12/23 05:05:17;;;;;;;11.30;5.80;;;;;;;-7.43;57.89;101767.45;117374;1186;21895;-52
2021/12/23 05:07:46;;;;;;;13.40;6.30;;;;;;;-7.48;57.96;101766.77;117346;1185;21993;-57
2021/12/23 05:10:16;;;;;;;12.50;6.10;;;;;;;-7.50;57.90;101765.89;117396;1183;21845;-52
2021/12/23 05:12:46;;;;;;;17.40;8.00;;;;;;;-7.53;57.76;101765.69;117292;1185;21874;-58
2021/12/23 05:15:16;;;;;;;17.20;7.40;;;;;;;-7.52;58.00;101770.89;117338;1186;22985;-54
2021/12/23 05:17:44;;;;;;;;;;;;;;;-7.45;58.07;101771.44;117345;1185;21841;-57
2021/12/23 05:20:14;;;;;;;13.00;6.10;;;;;;;-7.47;57.93;101773.14;117325;1185;22985;-58
2021/12/23 05:22:43;;;;;;;15.20;6.80;;;;;;;-7.48;57.97;101771.40;117376;1179;21869;-49
2021/12/23 05:25:11;;;;;;;14.60;7.00;;;;;;;-7.39;58.01;101765.80;117342;1186;21848;-50
2021/12/23 05:27:41;;;;;;;15.00;6.90;;;;;;;-7.33;57.87;101766.64;117351;1182;21848;-50
2021/12/23 05:30:12;;;;;;;18.30;7.00;;;;;;;-7.36;57.95;101770.31;117355;1182;21854;-55
2021/12/23 05:32:43;;;;;;;15.90;8.40;;;;;;;-7.33;58.03;101776.02;117220;1186;21860;-56
2021/12/23 05:35:13;;;;;;;17.20;9.20;;;;;;;-7.36;57.79;101780.05;117330;1186;22730;-56
2021/12/23 05:37:43;;;;;;;23.40;9.90;;;;;;;-7.45;57.70;101784.27;117346;1182;22813;-51
2021/12/23 05:40:14;;;;;;;17.00;7.30;;;;;;;-7.51;57.78;101786.67;117348;1185;22808;-56
2021/12/23 05:42:42;;;;;;;13.50;6.90;;;;;;;-7.51;57.80;101790.36;117369;1185;22904;-56
2021/12/23 05:45:11;;;;;;;13.10;6.60;;;;;;;-7.53;57.79;101790.72;117248;1186;23668;-50
2021/12/23 05:47:39;;;;;;;13.40;7.40;;;;;;;-7.58;57.67;101792.71;117305;1185;23012;-50
2021/12/23 05:50:08;;;;;;;15.90;8.10;;;;;;;-7.62;57.67;101796.65;117330;1186;21858;-51
2021/12/23 05:52:36;;;;;;;15.40;7.30;;;;;;;-7.66;57.71;101801.54;117220;1186;21859;-51
2021/12/23 05:55:05;;;;;;;18.70;8.10;;;;;;;-7.68;57.79;101806.02;117330;1182;23061;-56
2021/12/23 05:57:34;;;;;;;18.10;8.50;;;;;;;-7.69;57.79;101810.52;117324;1186;23363;-51
2021/12/23 06:00:11;;;;;;;16.60;7.50;;;;;;;-7.71;57.71;101815.84;117381;1183;23438;-55
2021/12/23 06:02:40;;;;;;;14.90;6.80;;;;;;;-7.70;57.74;101818.47;117284;1186;23551;-50
2021/12/23 06:05:09;;;;;;;18.20;7.90;;;;;;;-7.71;57.57;101823.79;117324;1182;21852;-56
2021/12/23 06:07:39;;;;;;;14.00;6.60;;;;;;;-7.69;57.85;101822.25;117197;1186;23436;-56
2021/12/23 06:10:07;;;;;;;15.80;7.00;;;;;;;-7.65;57.85;101823.13;117373;1183;23459;-51
2021/12/23 06:12:38;;;;;;;14.60;7.40;;;;;;;-7.63;57.94;101827.24;117388;1183;23470;-51
2021/12/23 06:15:08;;;;;;;12.40;7.10;;;;;;;-7.60;57.79;101827.98;117347;1183;21882;-57
2021/12/23 06:17:36;;;;;;;10.90;6.00;;;;;;;-7.57;57.73;101827.19;117355;1185;21953;-57
2021/12/23 06:20:05;;;;;;;13.10;7.20;;;;;;;-7.54;57.96;101829.38;117319;1185;22609;-56
2021/12/23 06:22:35;;;;;;;32.60;19.20;;;;;;;-7.50;57.94;101832.77;117370;1185;22911;-59
2021/12/23 06:25:05;;;;;;;39.60;17.70;;;;;;;-7.40;57.95;101833.56;117333;1183;23890;-55
2021/12/23 06:27:33;;;;;;;18.80;7.70;;;;;;;-7.31;58.06;101836.38;117397;1183;23622;-56
2021/12/23 06:30:02;;;;;;;21.80;10.60;;;;;;;-7.22;58.05;101838.96;117358;1185;24157;-50
2021/12/23 06:32:31;;;;;;;16.70;9.40;;;;;;;-7.14;58.37;101842.20;117315;1180;21989;-56
2021/12/23 06:34:59;;;;;;;21.70;9.30;;;;;;;-7.04;58.19;101840.27;117332;1182;23438;-58
2021/12/23 06:37:27;;;;;;;25.70;13.00;;;;;;;-6.92;58.49;101836.80;117338;1186;22336;-57
2021/12/23 06:39:56;;;;;;;26.00;14.20;;;;;;;-6.73;58.60;101839.05;117256;1185;21871;-54
2021/12/23 06:42:30;;;;;;;17.20;9.50;;;;;;;-6.59;58.47;101832.96;117300;1185;21863;-51
2021/12/23 06:44:58;;;;;;;21.20;9.40;;;;;;;-6.52;58.41;101838.99;117365;1184;21848;-51
2021/12/23 06:47:27;;;;;;;20.20;10.30;;;;;;;-6.55;58.26;101837.38;117376;1185;21867;-57
2021/12/23 06:49:55;;;;;;;16.10;9.50;;;;;;;-6.58;58.05;101838.85;117346;1185;22012;-51
2021/12/23 06:52:23;;;;;;;15.00;8.30;;;;;;;-6.58;58.09;101844.71;117408;1185;22911;-57
2021/12/23 06:54:54;;;;;;;17.30;8.50;;;;;;;-6.52;58.16;101844.78;117331;1185;23999;-51
2021/12/23 06:57:22;;;;;;;19.00;9.30;;;;;;;-6.46;58.43;101847.84;117287;1186;22624;-50
2021/12/23 06:59:51;;;;;;;16.10;8.50;;;;;;;-6.38;58.46;101850.72;117350;1186;21905;-56
2021/12/23 07:02:19;;;;;;;17.70;9.30;;;;;;;-6.25;58.52;101850.70;117352;1184;23440;-56
2021/12/23 07:04:47;;;;;;;13.50;7.80;;;;;;;-6.09;58.56;101853.33;117364;1184;21887;-52
2021/12/23 07:07:26;;;;;;;15.80;8.10;;;;;;;-5.96;58.59;101853.63;117359;1184;21855;-52
2021/12/23 07:09:55;;;;;;;12.60;6.50;;;;;;;-5.83;58.55;101854.27;117319;1185;22913;-52
2021/12/23 07:12:24;;;;;;;16.20;8.60;;;;;;;-5.71;58.76;101850.23;117329;1185;21873;-57
2021/12/23 07:14:52;;;;;;;14.90;7.50;;;;;;;-5.62;58.45;101845.64;117337;1183;24203;-57
2021/12/23 07:17:24;;;;;;;15.00;8.20;;;;;;;-5.50;58.73;101849.46;117355;1182;23490;-56
2021/12/23 07:19:53;;;;;;;15.40;7.40;;;;;;;-5.37;58.75;101854.33;117383;1185;23461;-57
2021/12/23 07:22:21;;;;;;;13.60;7.10;;;;;;;-5.29;58.67;101852.35;117369;1182;21994;-57
2021/12/23 07:24:49;;;;;;;15.10;7.60;;;;;;;-5.23;58.64;101851.98;117233;1182;23542;-52
2021/12/23 07:27:18;;;;;;;11.30;6.30;;;;;;;-5.14;58.83;101854.36;117317;1182;21858;-51
2021/12/23 07:29:46;;;;;;;12.40;7.20;;;;;;;-5.06;58.77;101855.30;117369;1185;21962;-57
2021/12/23 07:32:14;;;;;;;17.50;8.00;;;;;;;-4.99;58.80;101852.58;117309;1183;23513;-51
2021/12/23 07:34:43;;;;;;;16.30;8.00;;;;;;;-4.93;58.74;101849.75;117381;1180;23699;-52
2021/12/23 07:37:11;;;;;;;20.10;7.40;;;;;;;-4.85;58.76;101848.98;117394;1183;21850;-57
2021/12/23 07:39:40;;;;;;;14.10;6.30;;;;;;;-4.77;58.86;101849.35;117372;1182;22100;-57
2021/12/23 07:42:31;;;;;;;14.00;6.70;;;;;;;-4.70;58.88;101850.23;117379;1182;22036;-53
2021/12/23 07:45:01;;;;;;;14.20;7.20;;;;;;;-4.59;59.04;101847.25;117362;1186;21873;-57
2021/12/23 07:47:31;;;;;;;20.80;8.40;;;;;;;-4.50;59.06;101847.36;117344;1185;21996;-57
2021/12/23 07:50:00;;;;;;;22.30;11.20;;;;;;;-4.45;58.85;101848.06;117347;1182;21870;-56
2021/12/23 07:52:28;;;;;;;42.90;14.50;;;;;;;-4.33;58.91;101849.09;117373;1186;21858;-57
2021/12/23 07:54:56;;;;;;;25.50;12.00;;;;;;;-4.23;58.82;101847.89;117370;1186;23436;-57
2021/12/23 07:57:25;;;;;;;19.60;9.70;;;;;;;-4.13;58.76;101852.27;117313;1180;22612;-57
2021/12/23 07:59:53;;;;;;;16.40;8.00;;;;;;;-3.99;58.98;101856.45;117383;1186;21978;-53
2021/12/23 08:02:22;;;;;;;16.10;9.00;;;;;;;-3.88;58.99;101857.23;117299;1186;21994;-57
2021/12/23 08:04:50;;;;;;;12.10;7.40;;;;;;;-3.79;58.74;101860.61;117390;1185;22905;-56
2021/12/23 08:07:36;;;;;;;15.50;7.80;;;;;;;-3.71;58.78;101861.14;117302;1182;21858;-54
2021/12/23 08:10:05;;;;;;;19.50;10.60;;;;;;;-3.65;59.07;101858.12;117368;1185;23461;-58
2021/12/23 08:12:34;;;;;;;22.40;10.70;;;;;;;-3.55;59.04;101860.72;117365;1184;22672;-56
2021/12/23 08:15:03;;;;;;;14.80;7.40;;;;;;;-3.44;59.16;101861.77;117335;1185;21861;-57
2021/12/23 08:17:37;;;;;;;16.60;7.50;;;;;;;-3.33;59.19;101858.39;117331;1182;23544;-56
2021/12/23 08:20:10;;;;;;;14.70;6.90;;;;;;;-3.24;59.13;101854.00;117316;1185;22921;-57
2021/12/23 08:22:39;;;;;;;15.50;6.90;;;;;;;-3.18;59.03;101852.36;117323;1184;23472;-53
2021/12/23 08:25:09;;;;;;;12.20;7.10;;;;;;;-3.10;59.05;101853.92;117358;1182;24158;-52
2021/12/23 08:27:38;;;;;;;15.70;7.10;;;;;;;-2.96;59.32;101852.95;117342;1184;23563;-52
2021/12/23 08:30:08;;;;;;;14.30;7.60;;;;;;;-2.79;59.34;101848.05;117355;1184;21865;-56
2021/12/23 08:32:37;;;;;;;15.80;7.40;;;;;;;-2.66;59.37;101848.54;117359;1186;22948;-57
2021/12/23 08:35:06;;;;;;;16.20;6.90;;;;;;;-2.57;59.31;101848.95;117384;1182;23570;-53
2021/12/23 08:37:36;;;;;;;13.50;7.20;;;;;;;-2.48;59.24;101844.02;117387;1185;21860;-53
2021/12/23 08:40:06;;;;;;;17.00;8.10;;;;;;;-2.38;59.41;101838.16;117521;1182;21867;-58
2021/12/23 08:42:35;;;;;;;16.60;7.70;;;;;;;-2.32;59.22;101834.04;117338;1186;22930;-53
2021/12/23 08:45:07;;;;;;;11.70;6.90;;;;;;;-2.22;59.48;101828.27;117328;1186;22107;-57
2021/12/23 08:47:35;;;;;;;16.10;8.90;;;;;;;-2.12;59.17;101821.70;117364;1185;22897;-56
2021/12/23 08:50:05;;;;;;;18.90;10.60;;;;;;;-2.03;59.19;101816.41;117374;1185;21866;-57
2021/12/23 08:52:34;;;;;;;18.10;7.70;;;;;;;-1.95;59.28;101811.88;117376;1184;22833;-58
2021/12/23 08:55:04;;;;;;;11.90;7.70;;;;;;;-1.80;59.45;101810.94;117352;1182;22961;-53
2021/12/23 08:57:32;;;;;;;12.00;7.10;;;;;;;-1.65;59.39;101807.01;117339;1186;22162;-53
2021/12/23 09:00:02;;;;;;;11.90;6.30;;;;;;;-1.50;59.45;101805.84;117338;1184;21843;-59
2021/12/23 09:02:30;;;;;;;31.40;7.50;;;;;;;-1.42;59.21;101798.06;117345;1183;23455;-59
2021/12/23 09:04:59;;;;;;;18.10;7.60;;;;;;;-1.41;59.17;101797.05;117362;1185;21872;-59
2021/12/23 09:07:29;;;;;;;12.90;6.50;;;;;;;-1.40;59.18;101792.16;117302;1185;21868;-58
2021/12/23 09:09:58;;;;;;;13.00;6.70;;;;;;;-1.32;59.26;101787.09;117354;1185;23436;-59
2021/12/23 09:12:26;;;;;;;10.50;5.70;;;;;;;-1.22;58.96;101784.89;117357;1185;21858;-59
2021/12/23 09:14:55;;;;;;;14.80;6.00;;;;;;;-1.16;59.24;101784.73;117363;1185;21866;-56
2021/12/23 09:17:23;;;;;;;12.30;5.10;;;;;;;-1.01;59.53;101788.34;117522;1182;23437;-56
2021/12/23 09:19:52;;;;;;;10.20;5.10;;;;;;;-0.96;59.35;101788.64;117385;1185;21848;-58
2021/12/23 09:22:20;;;;;;;14.70;6.60;;;;;;;-1.05;59.12;101788.28;117354;1181;21858;-58
2021/12/23 09:24:56;;;;;;;16.80;6.90;;;;;;;-1.12;59.23;101786.55;117331;1182;23091;-58
2021/12/23 09:27:34;;;;;;;9.80;5.00;;;;;;;-1.12;59.18;101783.94;117352;1185;22654;-58
2021/12/23 09:33:00;;;;;;;9.20;4.40;;;;;;;-0.92;59.50;101775.12;117114;1188;21862;-58
2021/12/23 09:35:48;;;;;;;50.50;10.40;;;;;;;-0.82;59.46;101770.97;117331;1185;21913;-57
2021/12/23 09:38:17;;;;;;;21.70;6.30;;;;;;;-0.81;59.40;101772.59;117318;1185;21860;-56
2021/12/23 09:40:46;;;;;;;54.10;12.60;;;;;;;-0.74;59.49;101769.34;117382;1183;21870;-58
2021/12/23 09:43:15;;;;;;;11.10;5.50;;;;;;;-0.58;59.56;101766.63;117198;1181;21915;-59
2021/12/23 09:46:18;;;;;;;14.90;5.50;;;;;;;-0.46;59.46;101761.09;117327;1185;21904;-59
2021/12/23 09:48:47;;;;;;;8.00;4.80;;;;;;;-0.36;59.50;101755.73;117357;1186;22915;-56
2021/12/23 09:51:19;;;;;;;9.00;4.00;;;;;;;-0.26;59.48;101752.16;117303;1182;23438;-58
2021/12/23 09:53:57;;;;;;;8.10;4.00;;;;;;;-0.12;59.41;101753.76;117268;1186;23457;-54
2021/12/23 09:56:26;;;;;;;9.50;4.40;;;;;;;-0.01;59.70;101748.27;117281;1186;22652;-53
2021/12/23 09:58:58;;;;;;;9.90;4.90;;;;;;;0.04;59.34;101748.38;117283;1186;21833;-55
2021/12/23 10:01:28;;;;;;;8.00;4.70;;;;;;;-0.05;59.20;101752.07;117284;1184;21857;-54
2021/12/23 10:03:57;;;;;;;13.30;7.00;;;;;;;-0.07;59.18;101748.34;117362;1186;21860;-58
2021/12/23 10:06:26;;;;;;;15.10;5.70;;;;;;;-0.01;59.25;101742.63;117272;1186;22832;-55
2021/12/23 10:08:55;;;;;;;9.60;5.20;;;;;;;0.16;59.55;101740.73;117277;1186;23456;-57
2021/12/23 10:31:33;;;;;;;9.30;4.90;;;;;;;0.52;60.15;101713.16;116820;1190;21858;-58
2021/12/23 10:37:22;;;;;;;8.90;4.90;;;;;;;0.83;59.48;101705.39;116545;1189;22073;-55
2021/12/23 10:40:01;;;;;;;18.30;5.40;;;;;;;0.93;59.39;101704.66;116824;1185;23496;-55
2021/12/23 10:42:30;;;;;;;7.30;3.90;;;;;;;0.96;59.38;101703.59;116807;1189;24183;-55
2021/12/23 10:45:01;;;;;;;8.60;4.80;;;;;;;0.92;59.04;101698.52;116878;1189;21986;-55
2021/12/23 10:47:45;;;;;;;11.60;4.60;;;;;;;0.78;58.80;101691.49;116955;1186;21880;-56
2021/12/23 10:50:22;;;;;;;8.90;4.50;;;;;;;0.80;59.34;101690.38;116924;1187;21888;-56
2021/12/23 10:53:03;;;;;;;7.70;4.50;;;;;;;0.74;58.88;101685.41;116919;1186;22850;-55
2021/12/23 10:58:18;;;;;;;8.30;4.20;;;;;;;0.70;58.94;101679.00;117287;1185;21989;-56
2021/12/23 11:00:50;;;;;;;9.40;4.40;;;;;;;0.63;58.90;101682.64;117277;1186;23021;-59
2021/12/23 11:03:45;;;;;;;8.30;4.10;;;;;;;0.41;58.64;101685.71;117267;1186;21868;-59
2021/12/23 11:06:23;;;;;;;7.50;4.10;;;;;;;0.30;58.70;101684.10;117358;1186;21856;-60
2021/12/23 11:09:00;;;;;;;7.60;4.40;;;;;;;0.09;58.41;101684.07;117329;1183;21861;-56
2021/12/23 11:42:38;;;;;;;6.90;3.70;;;;;;;-0.05;58.72;101657.50;117043;1185;21892;-58
2021/12/23 11:45:07;;;;;;;13.70;6.10;;;;;;;0.08;58.82;101650.89;117059;1186;21858;-55
2021/12/23 11:47:38;;;;;;;13.00;6.20;;;;;;;0.17;59.08;101646.02;117052;1188;21859;-59
2021/12/23 11:50:18;;;;;;;9.70;4.30;;;;;;;0.23;58.73;101646.66;117013;1186;21866;-59
2021/12/23 11:52:47;;;;;;;10.70;4.80;;;;;;;0.17;58.63;101642.91;116903;1188;21862;-59
2021/12/23 11:55:15;;;;;;;8.30;4.40;;;;;;;0.02;58.31;101641.43;116996;1186;21902;-56
2021/12/23 11:57:44;;;;;;;8.50;4.30;;;;;;;-0.09;58.53;101644.15;117016;1186;23229;-59
2021/12/23 12:00:17;;;;;;;9.80;4.70;;;;;;;-0.07;58.59;101646.70;116986;1188;21864;-56
2021/12/23 12:02:59;;;;;;;8.30;4.60;;;;;;;0.02;58.69;101646.10;117010;1188;23311;-56
2021/12/23 12:05:29;;;;;;;9.80;5.40;;;;;;;0.11;58.96;101648.31;116952;1186;22008;-59
2021/12/23 12:08:14;;;;;;;11.60;7.10;;;;;;;0.22;59.07;101651.77;117058;1188;21867;-59
2021/12/23 12:10:44;;;;;;;15.50;8.10;;;;;;;0.28;58.62;101648.27;117005;1189;23545;-56
2021/12/23 12:13:16;;;;;;;14.50;8.00;;;;;;;0.12;58.14;101646.25;117139;1183;21876;-59
2021/12/23 12:15:48;;;;;;;21.10;10.00;;;;;;;-0.17;57.79;101636.67;117301;1185;21867;-56
2021/12/23 12:18:19;;;;;;;18.90;8.30;;;;;;;-0.38;58.05;101635.60;117287;1185;22665;-58
2021/12/23 12:20:54;;;;;;;12.50;6.10;;;;;;;-0.48;58.14;101633.54;117310;1184;22815;-59
2021/12/23 12:23:33;;;;;;;18.70;7.60;;;;;;;-0.68;58.22;101637.66;117296;1183;21873;-59
2021/12/23 12:26:09;;;;;;;15.30;7.70;;;;;;;-0.85;58.33;101643.95;117088;1184;21910;-56
2021/12/23 12:28:44;;;;;;;14.60;7.20;;;;;;;-1.09;58.20;101644.89;117292;1183;23462;-58
2021/12/23 12:31:17;;;;;;;14.50;7.30;;;;;;;-1.20;58.32;101646.89;117346;1186;21870;-58
2021/12/23 12:33:55;;;;;;;27.60;11.30;;;;;;;-1.14;58.37;101640.48;117274;1182;23566;-58
2021/12/23 12:36:24;;;;;;;11.10;6.50;;;;;;;-1.09;58.88;101636.66;117273;1184;21858;-59